Terminal Aerodrome Forecast
Issued by NWS

Home | Current Version | Previous Version | Text Only | Print | Product List | Glossary On
Versions: 1 2 3 4 5 6 7 8 9 10 11 12 13 14 15
462
FTAK31 PAJN 091737
TAFASI
TAF
PASI 091737Z 0918/1018 VRB04KT P6SM BKN200
     FM092200 05008KT P6SM SCT050 SCT080
     FM100600 10015G25KT P6SM FEW020 SCT040 OVC060
     FM100900 14015G25KT 6SM -RA BKN035 OVC060 WS020/14035KT
     FM101200 14018G28KT 4SM -RA BR FEW006 SCT010 OVC025=

USA.gov is the U.S. government's official web portal to all federal, state and local government web resources and services.